CZFN/ZFN METAR and TAF weather

Enter ICAO airport designator
Station Type Date Time Source
CZFN METAR 2021/09/24 22:50 UTC NOAA

CZFN 242250Z 27008KT 15SM SCT016 OVC060 05/02 A2940 RMK ST6SC2 LAST STFD OBS NEXT 271500 SLP965


Station Type Date Time Source
CZFN Decoded METAR 2021/09/24 22:50 UTC NOAA

Fort Norman Airport, Canada (CZFN) 64-55N 125-34W
Sep 24, 2021 - 06:50 PM EDT / 2021.09.24 2250 UTC
Wind: from the W (270 degrees) at 9 MPH (8 KT):0
Visibility: 15 mile(s):0
Sky conditions: overcast
Temperature: 41 F (5 C)
Dew Point: 35 F (2 C)
Relative Humidity: 80%
Pressure (altimeter): 29.4 in. Hg (995 hPa)
ob: CZFN 242250Z 27008KT 15SM SCT016 OVC060 05/02 A2940 RMK ST6SC2 LAST STFD OBS NEXT 271500 SLP965
cycle: 23

Station Type Date Time Source
CZFN TAF UTC NOAA

Error!

Example: see airport list